Terminal Aerodrome Forecast
Issued by NWS Central Illinois

Home | Current Version | Previous Version | Text Only | Print | Product List | Glossary On
Versions: 1 2 3 4 5 6 7 8 9 10 11 12 13 14
000
FTUS43 KILX 191722
TAFSPI
TAF
KSPI 191722Z 1918/2018 04008KT 5SM -RA BR BKN030
     FM200300 25007KT 5SM BR VCSH OVC035
     FM200600 24006KT 5SM BR VCSH OVC030
     FM200900 28011KT P6SM OVC012
     FM201400 31015KT P6SM SCT015 BKN200=

USA.gov is the U.S. government's official web portal to all federal, state and local government web resources and services.